Time;durP1;ratioP1;P1;durP2;ratioP2;P2;SDS_P1;SDS_P2;PMS_P1;PMS_P2;Temp;Humidity;BMP_temperature;BMP_pressure;BME280_temperature;BME280_humidity;BME280_pressure;Samples;Min_cycle;Max_cycle;Signal;HPM_P1;HPM_P2
2023/11/11 00:00:46;;;;;;;0.17;0.17;;;;;;;9.68;71.39;100071.25;5059193;28;20025;-79
2023/11/11 00:03:12;;;;;;;0.20;0.20;;;;;;;9.66;70.80;100069.56;5058825;28;20124;-79
2023/11/11 00:05:38;;;;;;;0.20;0.20;;;;;;;9.68;71.23;100079.19;5059626;28;20029;-79
2023/11/11 00:08:04;;;;;;;0.20;0.20;;;;;;;9.59;70.22;100083.88;5059305;28;20057;-79
2023/11/11 00:10:31;;;;;;;0.10;0.10;;;;;;;9.66;70.59;100091.56;5058978;28;20056;-79
2023/11/11 00:12:57;;;;;;;0.10;0.10;;;;;;;9.67;70.07;100095.97;5061026;28;20684;-79
2023/11/11 00:15:24;;;;;;;0.10;0.10;;;;;;;9.79;70.47;100091.22;5059458;28;20029;-79
2023/11/11 00:17:51;;;;;;;0.20;0.20;;;;;;;9.83;70.41;100091.09;5056145;28;20275;-80
2023/11/11 00:20:17;;;;;;;0.10;0.10;;;;;;;9.84;70.06;100097.25;5056914;28;20106;-79
2023/11/11 00:22:44;;;;;;;0.10;0.10;;;;;;;9.88;70.20;100093.59;5055991;28;20079;-80
2023/11/11 00:25:12;;;;;;;0.20;0.20;;;;;;;9.91;70.52;100100.59;5057047;28;20059;-79
2023/11/11 00:27:41;;;;;;;0.20;0.20;;;;;;;9.92;70.04;100104.97;5060079;28;20037;-78
2023/11/11 00:30:08;;;;;;;0.20;0.20;;;;;;;9.88;70.21;100106.81;5062228;28;20021;-78
2023/11/11 00:32:34;;;;;;;0.20;0.20;;;;;;;9.89;70.47;100108.56;5059378;28;20052;-79
2023/11/11 00:35:02;;;;;;;0.17;0.17;;;;;;;9.96;70.12;100112.78;5062619;28;20518;-80
2023/11/11 00:37:28;;;;;;;0.10;0.10;;;;;;;9.97;70.27;100116.28;5061978;28;20040;-78
2023/11/11 00:39:55;;;;;;;0.20;0.20;;;;;;;9.92;70.13;100118.19;5057125;28;20075;-79
2023/11/11 00:42:21;;;;;;;0.10;0.10;;;;;;;10.02;70.42;100119.69;5062606;28;20475;-80
2023/11/11 00:44:48;;;;;;;0.10;0.10;;;;;;;9.95;70.34;100121.63;5061633;28;20086;-80
2023/11/11 00:47:16;;;;;;;0.10;0.10;;;;;;;9.99;70.36;100120.63;5061113;28;20033;-79
2023/11/11 00:49:42;;;;;;;0.20;0.20;;;;;;;9.97;70.25;100133.03;5061382;28;20503;-79
2023/11/11 00:52:08;;;;;;;0.15;0.15;;;;;;;9.91;70.36;100143.78;5052229;28;20025;-78
2023/11/11 00:54:38;;;;;;;0.10;0.10;;;;;;;9.84;70.60;100142.22;5061057;28;20040;-79
2023/11/11 00:57:05;;;;;;;0.10;0.10;;;;;;;9.82;70.84;100142.28;5067519;28;20112;-78
2023/11/11 00:59:31;;;;;;;0.20;0.20;;;;;;;9.76;70.46;100149.50;5067257;28;20115;-79
2023/11/11 01:01:59;;;;;;;0.15;0.15;;;;;;;9.79;70.79;100175.88;5066638;28;20056;-79
2023/11/11 01:04:26;;;;;;;0.10;0.10;;;;;;;9.77;70.56;100161.81;5064371;28;20033;-79
2023/11/11 01:06:53;;;;;;;0.10;0.10;;;;;;;9.80;70.83;100161.75;5064870;28;20029;-79
2023/11/11 01:09:20;;;;;;;0.20;0.20;;;;;;;9.68;70.20;100166.47;5065065;28;20097;-78
2023/11/11 01:11:46;;;;;;;0.10;0.10;;;;;;;9.75;70.48;100174.25;5067087;28;20029;-78
2023/11/11 01:14:12;;;;;;;0.30;0.30;;;;;;;9.67;70.04;100188.53;5064564;28;20028;-78
2023/11/11 01:16:39;;;;;;;0.10;0.10;;;;;;;9.65;70.23;100211.50;5066892;28;20037;-78
2023/11/11 01:19:05;;;;;;;0.20;0.20;;;;;;;9.57;70.58;100181.78;5065950;28;20025;-78
2023/11/11 01:21:31;;;;;;;0.30;0.30;;;;;;;9.72;70.23;100183.13;5064026;28;20032;-78
2023/11/11 01:23:58;;;;;;;0.20;0.20;;;;;;;9.73;70.25;100171.63;5063209;28;20819;-79
2023/11/11 01:26:24;;;;;;;0.10;0.10;;;;;;;9.64;69.97;100162.16;5063668;28;20025;-79
2023/11/11 01:28:50;;;;;;;0.20;0.20;;;;;;;9.65;70.22;100160.41;5061703;28;20037;-79
2023/11/11 01:31:18;;;;;;;0.10;0.10;;;;;;;9.65;70.17;100157.75;5062468;28;20039;-79
2023/11/11 01:33:44;;;;;;;0.20;0.20;;;;;;;9.65;70.15;100177.13;5063727;28;20048;-79
2023/11/11 01:36:11;;;;;;;0.20;0.20;;;;;;;9.65;70.12;100174.47;5062932;28;20029;-78
2023/11/11 01:38:37;;;;;;;0.10;0.10;;;;;;;9.63;70.18;100160.44;5058786;28;20060;-79
2023/11/11 01:41:04;;;;;;;0.20;0.20;;;;;;;9.64;70.31;100166.59;5061454;28;20021;-80
2023/11/11 01:43:31;;;;;;;0.20;0.20;;;;;;;9.61;70.23;100166.66;5066518;28;20033;-78
2023/11/11 01:46:01;;;;;;;0.20;0.20;;;;;;;9.61;70.35;100150.78;5066809;28;20080;-79
2023/11/11 01:48:30;;;;;;;0.10;0.10;;;;;;;9.58;70.50;100156.19;5068283;28;20496;-80
2023/11/11 01:50:56;;;;;;;0.20;0.20;;;;;;;9.54;70.32;100156.28;5065728;28;20053;-80
2023/11/11 01:53:24;;;;;;;0.20;0.20;;;;;;;9.48;70.13;100158.19;5063013;28;20021;-80
2023/11/11 01:55:51;;;;;;;0.15;0.15;;;;;;;9.45;70.21;100153.84;5062600;28;20054;-79
2023/11/11 01:58:17;;;;;;;0.20;0.20;;;;;;;9.41;70.38;100149.56;5064128;28;20041;-78
2023/11/11 02:00:45;;;;;;;0.20;0.20;;;;;;;9.37;70.35;100148.78;5061871;28;20025;-79
2023/11/11 02:03:13;;;;;;;0.20;0.20;;;;;;;9.34;70.44;100148.84;5061152;28;20419;-79
2023/11/11 02:05:39;;;;;;;0.17;0.17;;;;;;;9.35;70.38;100149.72;5060218;28;20566;-79
2023/11/11 02:08:08;;;;;;;0.17;0.17;;;;;;;9.33;70.17;100152.41;5060045;28;20021;-78
2023/11/11 02:10:36;;;;;;;0.20;0.20;;;;;;;9.31;70.57;100164.81;5058941;28;20086;-78
2023/11/11 02:13:02;;;;;;;0.20;0.20;;;;;;;9.25;70.63;100170.25;5059082;28;20511;-79
2023/11/11 02:15:28;;;;;;;0.40;0.40;;;;;;;9.23;70.90;100182.63;5058822;28;20029;-79
2023/11/11 02:17:58;;;;;;;0.10;0.10;;;;;;;9.17;70.98;100190.69;5059103;28;20052;-79
2023/11/11 02:20:24;;;;;;;0.20;0.20;;;;;;;9.21;70.98;100189.75;5058703;28;20028;-79
2023/11/11 02:22:51;;;;;;;0.10;0.10;;;;;;;9.21;71.25;100195.03;5056835;28;20033;-78
2023/11/11 02:25:18;;;;;;;0.20;0.20;;;;;;;9.22;71.20;100202.03;5053998;28;20033;-78
2023/11/11 02:27:46;;;;;;;0.10;0.10;;;;;;;9.12;71.61;100196.13;5053094;28;20067;-79
2023/11/11 02:30:13;;;;;;;0.20;0.20;;;;;;;9.25;71.53;100190.53;5049470;28;20479;-79
2023/11/11 02:32:40;;;;;;;0.20;0.20;;;;;;;9.25;71.78;100199.31;5050252;28;20066;-78
2023/11/11 02:35:06;;;;;;;0.10;0.10;;;;;;;9.27;71.72;100197.50;5054702;28;20135;-78
2023/11/11 02:37:32;;;;;;;0.15;0.15;;;;;;;9.27;72.00;100200.16;5058507;28;20035;-79
2023/11/11 02:39:59;;;;;;;0.20;0.20;;;;;;;9.27;72.01;100194.88;5061629;28;20037;-78
2023/11/11 02:42:25;;;;;;;0.10;0.10;;;;;;;9.29;71.67;100193.03;5056682;28;20053;-77
2023/11/11 02:44:51;;;;;;;0.10;0.10;;;;;;;9.27;71.98;100191.34;5059141;28;20096;-78
2023/11/11 02:47:17;;;;;;;0.20;0.20;;;;;;;9.24;72.02;100192.28;5064813;28;20115;-78
2023/11/11 02:49:44;;;;;;;0.20;0.20;;;;;;;9.22;71.72;100188.81;5062648;28;20028;-78
2023/11/11 02:52:10;;;;;;;0.20;0.20;;;;;;;9.19;71.75;100191.53;5055824;28;20025;-78
2023/11/11 02:54:36;;;;;;;0.20;0.20;;;;;;;9.20;71.91;100195.94;5061052;28;20037;-75
2023/11/11 02:57:03;;;;;;;0.20;0.20;;;;;;;9.19;72.15;100202.13;5064486;28;20127;-79
2023/11/11 02:59:29;;;;;;;0.20;0.20;;;;;;;9.21;72.10;100205.59;5064307;28;20032;-79
2023/11/11 03:01:55;;;;;;;0.10;0.10;;;;;;;9.23;72.21;100209.06;5063679;28;20029;-79
2023/11/11 03:04:21;;;;;;;0.20;0.20;;;;;;;9.22;72.49;100197.63;5064674;28;20041;-78
2023/11/11 03:06:47;;;;;;;0.20;0.20;;;;;;;9.24;72.42;100200.22;5061872;28;20024;-78
2023/11/11 03:09:15;;;;;;;0.20;0.20;;;;;;;9.27;72.02;100205.44;5061236;28;20472;-78
2023/11/11 03:11:41;;;;;;;0.20;0.20;;;;;;;9.31;71.75;100212.38;5060701;28;21315;-78
2023/11/11 03:14:07;;;;;;;0.20;0.20;;;;;;;9.41;71.21;100218.31;5061457;28;20538;-78
2023/11/11 03:16:36;;;;;;;0.73;0.73;;;;;;;9.40;70.89;100219.22;5061589;28;20092;-77
2023/11/11 03:19:03;;;;;;;0.20;0.20;;;;;;;9.49;70.67;100210.19;5052381;28;20052;-78
2023/11/11 03:21:30;;;;;;;0.20;0.20;;;;;;;9.48;71.01;100213.72;5062179;28;20391;-78
2023/11/11 03:23:56;;;;;;;0.17;0.17;;;;;;;9.60;70.67;100218.69;5063233;28;20492;-79
2023/11/11 03:26:23;;;;;;;0.20;0.20;;;;;;;9.60;70.50;100220.50;5062128;28;20404;-78
2023/11/11 03:28:50;;;;;;;0.20;0.20;;;;;;;9.64;70.67;100225.63;5061888;28;20028;-78
2023/11/11 03:31:17;;;;;;;0.10;0.10;;;;;;;9.61;70.72;100220.44;5059805;28;20029;-79
2023/11/11 03:33:45;;;;;;;0.10;0.10;;;;;;;9.58;70.55;100232.88;5062664;28;20055;-79
2023/11/11 03:36:12;;;;;;;0.10;0.10;;;;;;;9.57;70.61;100239.94;5060768;28;20097;-78
2023/11/11 03:38:38;;;;;;;0.20;0.20;;;;;;;9.54;70.79;100240.03;5061016;28;20036;-77
2023/11/11 03:41:07;;;;;;;0.20;0.20;;;;;;;9.52;70.69;100248.00;5061020;28;20022;-78
2023/11/11 03:43:35;;;;;;;0.10;0.10;;;;;;;9.31;71.03;100244.09;5061476;28;20039;-78
2023/11/11 03:46:03;;;;;;;0.20;0.20;;;;;;;9.28;71.03;100253.88;5061920;28;20359;-78
2023/11/11 03:48:29;;;;;;;0.20;0.20;;;;;;;9.19;70.18;100254.97;5058903;28;20043;-79
2023/11/11 03:50:55;;;;;;;0.20;0.20;;;;;;;9.33;70.09;100254.63;5059352;28;20028;-78
2023/11/11 03:53:22;;;;;;;0.10;0.10;;;;;;;9.34;69.60;100240.53;5059838;28;20028;-79
2023/11/11 03:55:49;;;;;;;0.57;0.57;;;;;;;9.36;69.47;100244.00;5058841;28;20025;-77
2023/11/11 03:58:15;;;;;;;0.20;0.20;;;;;;;9.36;69.55;100247.50;5053129;28;20033;-78
2023/11/11 04:00:44;;;;;;;0.10;0.10;;;;;;;9.32;69.63;100251.13;5058084;28;20029;-78
2023/11/11 04:03:11;;;;;;;0.10;0.10;;;;;;;9.32;69.12;100256.44;5064151;28;20035;-79
2023/11/11 04:05:38;;;;;;;0.20;0.20;;;;;;;9.32;69.06;100251.13;5058557;28;20029;-79
2023/11/11 04:08:04;;;;;;;0.20;0.20;;;;;;;9.26;68.81;100251.28;5059210;28;20088;-79
2023/11/11 04:10:30;;;;;;;0.20;0.20;;;;;;;9.35;68.71;100252.84;5048425;28;20037;-81
2023/11/11 04:12:57;;;;;;;0.20;0.20;;;;;;;9.24;68.75;100247.81;5060395;28;20040;-80
2023/11/11 04:15:23;;;;;;;0.20;0.20;;;;;;;9.27;68.68;100257.44;5050237;28;20506;-79
2023/11/11 04:17:49;;;;;;;0.20;0.20;;;;;;;9.27;68.49;100258.31;5057823;28;20032;-80
2023/11/11 04:20:17;;;;;;;0.20;0.20;;;;;;;9.30;68.41;100258.22;5060187;28;20040;-80
2023/11/11 04:22:43;;;;;;;0.20;0.20;;;;;;;9.23;68.63;100269.84;5059276;28;20025;-80
2023/11/11 04:25:10;;;;;;;0.20;0.20;;;;;;;9.28;68.83;100270.59;5058806;28;20033;-79
2023/11/11 04:27:37;;;;;;;0.20;0.20;;;;;;;9.18;68.57;100271.72;5059150;28;20033;-81
2023/11/11 04:30:06;;;;;;;0.20;0.20;;;;;;;9.25;69.00;100269.84;5056989;28;20029;-79
2023/11/11 04:32:34;;;;;;;0.20;0.20;;;;;;;9.14;69.06;100273.56;5058811;28;20037;-80
2023/11/11 04:35:00;;;;;;;0.10;0.10;;;;;;;9.15;69.31;100285.91;5061763;28;20037;-79
2023/11/11 04:37:26;;;;;;;0.20;0.20;;;;;;;9.17;69.37;100289.38;5058125;28;20112;-78
2023/11/11 04:39:57;;;;;;;0.13;0.13;;;;;;;9.14;69.72;100288.56;5057955;28;20037;-80
2023/11/11 04:42:24;;;;;;;0.10;0.10;;;;;;;9.14;69.55;100283.28;5058475;28;20033;-79
2023/11/11 04:44:51;;;;;;;0.20;0.20;;;;;;;9.10;69.92;100292.19;5060999;28;20109;-80
2023/11/11 04:47:18;;;;;;;0.15;0.15;;;;;;;9.09;69.66;100282.53;5063459;28;20120;-79
2023/11/11 04:49:44;;;;;;;0.20;0.20;;;;;;;9.10;69.87;100290.41;5063779;28;20139;-77
2023/11/11 04:52:12;;;;;;;0.10;0.10;;;;;;;9.09;69.87;100293.09;5058441;28;20475;-80
2023/11/11 04:54:38;;;;;;;0.20;0.20;;;;;;;9.08;69.76;100297.50;5064056;28;20051;-79
2023/11/11 04:57:05;;;;;;;0.20;0.20;;;;;;;9.01;70.31;100299.44;5063622;28;20025;-79
2023/11/11 04:59:31;;;;;;;0.20;0.20;;;;;;;9.02;70.23;100306.47;5063621;28;20043;-81
2023/11/11 05:01:57;;;;;;;0.20;0.20;;;;;;;9.10;69.93;100308.03;5061693;28;20028;-80
2023/11/11 05:04:24;;;;;;;0.10;0.10;;;;;;;9.14;70.19;100304.44;5063163;28;20033;-80
2023/11/11 05:06:50;;;;;;;0.20;0.20;;;;;;;9.12;69.93;100308.88;5066024;28;20036;-78
2023/11/11 05:09:16;;;;;;;0.20;0.20;;;;;;;9.12;69.98;100311.53;5066827;28;20396;-80
2023/11/11 05:11:45;;;;;;;0.10;0.10;;;;;;;9.09;69.87;100330.09;5064913;28;20043;-80
2023/11/11 05:14:13;;;;;;;0.20;0.20;;;;;;;9.12;69.85;100327.38;5065617;28;20029;-80
2023/11/11 05:16:40;;;;;;;0.20;0.20;;;;;;;9.17;70.00;100347.53;5066053;28;20047;-80
2023/11/11 05:19:07;;;;;;;0.20;0.20;;;;;;;9.25;69.92;100352.63;5066329;28;20028;-79
2023/11/11 05:21:34;;;;;;;0.20;0.20;;;;;;;9.24;70.09;100353.53;5067408;28;20024;-80
2023/11/11 05:24:01;;;;;;;0.10;0.10;;;;;;;9.24;69.84;100356.19;5066253;28;20045;-78
2023/11/11 05:26:28;;;;;;;0.20;0.20;;;;;;;9.24;69.39;100353.53;5062131;28;20040;-78
2023/11/11 05:28:55;;;;;;;0.20;0.20;;;;;;;9.27;69.20;100348.19;5061377;28;20443;-78
2023/11/11 05:31:23;;;;;;;0.10;0.10;;;;;;;9.25;69.05;100350.00;5058115;28;20111;-78
2023/11/11 05:33:50;;;;;;;0.20;0.20;;;;;;;9.27;68.89;100348.19;5060438;28;20032;-78
2023/11/11 05:36:17;;;;;;;0.20;0.20;;;;;;;9.26;69.16;100346.44;5061514;28;20709;-78
2023/11/11 05:38:43;;;;;;;0.20;0.20;;;;;;;9.27;68.70;100347.31;5061298;28;20100;-78
2023/11/11 05:41:10;;;;;;;0.20;0.20;;;;;;;9.28;69.01;100355.19;5060591;28;20425;-78
2023/11/11 05:43:36;;;;;;;0.20;0.20;;;;;;;9.28;68.88;100362.28;5060338;28;20039;-78
2023/11/11 05:46:02;;;;;;;0.20;0.20;;;;;;;9.28;69.10;100359.63;5056637;28;20074;-78
2023/11/11 05:48:28;;;;;;;0.20;0.20;;;;;;;9.29;69.31;100356.09;5057455;28;20059;-78
2023/11/11 05:50:54;;;;;;;0.20;0.20;;;;;;;9.30;69.33;100356.03;5056730;28;20025;-78
2023/11/11 05:53:20;;;;;;;0.20;0.20;;;;;;;9.31;69.22;100363.06;5055068;28;20515;-78
2023/11/11 05:55:46;;;;;;;0.20;0.20;;;;;;;9.33;69.44;100345.41;5055365;28;20044;-78
2023/11/11 05:58:12;;;;;;;0.20;0.20;;;;;;;9.36;69.55;100360.34;5059800;28;20029;-78
2023/11/11 06:00:39;;;;;;;0.20;0.20;;;;;;;9.37;69.59;100365.59;5058155;28;20021;-78
2023/11/11 06:03:05;;;;;;;0.20;0.20;;;;;;;9.37;69.57;100370.88;5059488;28;20123;-77
2023/11/11 06:05:34;;;;;;;0.20;0.20;;;;;;;9.38;69.80;100366.44;5059376;28;20033;-76
2023/11/11 06:08:01;;;;;;;0.10;0.10;;;;;;;9.39;70.28;100369.06;5069890;28;20029;-76
2023/11/11 06:10:27;;;;;;;0.20;0.20;;;;;;;9.42;70.14;100369.88;5063213;28;20076;-78
2023/11/11 06:12:55;;;;;;;0.20;0.20;;;;;;;9.45;70.08;100372.47;5066170;28;20055;-78
2023/11/11 06:15:22;;;;;;;0.10;0.10;;;;;;;9.47;70.35;100374.19;5065392;28;20070;-78
2023/11/11 06:17:48;;;;;;;0.20;0.20;;;;;;;9.46;70.50;100371.53;5063628;28;20025;-78
2023/11/11 06:20:14;;;;;;;0.10;0.10;;;;;;;9.43;70.50;100363.69;5063707;28;20029;-78
2023/11/11 06:22:42;;;;;;;1.38;1.08;;;;;;;9.43;70.43;100363.69;5062162;28;20029;-78
2023/11/11 06:25:08;;;;;;;0.10;0.10;;;;;;;9.35;70.50;100363.88;5056039;28;20113;-78
2023/11/11 06:27:35;;;;;;;0.20;0.20;;;;;;;9.31;70.62;100371.00;5055245;28;20029;-78
2023/11/11 06:30:01;;;;;;;0.10;0.10;;;;;;;9.32;70.56;100375.41;5053979;28;20067;-78
2023/11/11 06:32:27;;;;;;;0.20;0.20;;;;;;;9.29;70.67;100393.09;5050301;28;20180;-77
2023/11/11 06:34:53;;;;;;;0.10;0.10;;;;;;;9.28;70.57;100397.50;5052818;28;20447;-78
2023/11/11 06:37:19;;;;;;;0.10;0.10;;;;;;;9.28;70.52;100397.50;5059608;28;20025;-78
2023/11/11 06:39:45;;;;;;;0.20;0.20;;;;;;;9.29;70.64;100399.25;5060311;28;20033;-78
2023/11/11 06:42:12;;;;;;;0.20;0.20;;;;;;;9.29;70.71;100398.38;5063391;28;20033;-79
2023/11/11 06:44:38;;;;;;;0.20;0.20;;;;;;;9.29;70.86;100401.88;5061935;28;20396;-79
2023/11/11 06:47:04;;;;;;;0.20;0.20;;;;;;;9.27;70.98;100401.06;5055383;28;20033;-79
2023/11/11 06:49:30;;;;;;;0.20;0.20;;;;;;;9.27;70.93;100406.34;5058029;28;20037;-78
2023/11/11 06:51:56;;;;;;;0.20;0.20;;;;;;;9.22;70.97;100402.91;5048884;28;20473;-78
2023/11/11 06:54:22;;;;;;;0.20;0.20;;;;;;;9.26;70.95;100412.53;5047360;28;20159;-78
2023/11/11 06:56:48;;;;;;;0.20;0.20;;;;;;;9.26;70.97;100404.63;5046456;28;20021;-78
2023/11/11 06:59:15;;;;;;;0.10;0.10;;;;;;;9.28;70.84;100409.84;5052758;28;20074;-80
2023/11/11 07:01:41;;;;;;;0.20;0.20;;;;;;;9.30;70.94;100403.63;5057379;28;20092;-79
2023/11/11 07:04:07;;;;;;;0.10;0.10;;;;;;;9.29;71.04;100416.88;5060915;28;20090;-80
2023/11/11 07:06:33;;;;;;;0.10;0.10;;;;;;;9.31;71.28;100413.31;5058924;28;20025;-80
2023/11/11 07:09:00;;;;;;;0.20;0.20;;;;;;;9.34;71.35;100415.88;5051837;28;20037;-80
2023/11/11 07:11:26;;;;;;;0.38;0.38;;;;;;;9.33;71.40;100411.50;5052570;28;20396;-79
2023/11/11 07:13:53;;;;;;;0.20;0.20;;;;;;;9.33;71.29;100411.50;5051251;28;20060;-79
2023/11/11 07:16:19;;;;;;;0.20;0.20;;;;;;;9.34;71.17;100412.38;5056285;28;20047;-80
2023/11/11 07:18:47;;;;;;;0.20;0.20;;;;;;;9.32;71.54;100415.06;5060112;28;20025;-79
2023/11/11 07:21:22;;;;;;;0.20;0.20;;;;;;;9.36;71.24;100419.34;5049980;28;20025;-80
2023/11/11 07:23:48;;;;;;;0.20;0.20;;;;;;;9.32;71.50;100420.34;5053932;28;20021;-79
2023/11/11 07:26:16;;;;;;;0.20;0.20;;;;;;;9.36;71.36;100421.16;5055306;28;20484;-79
2023/11/11 07:28:45;;;;;;;0.17;0.17;;;;;;;9.37;71.29;100433.44;5057144;28;20511;-79
2023/11/11 07:31:13;;;;;;;0.20;0.20;;;;;;;9.39;71.32;100432.53;5048107;28;20022;-79
2023/11/11 07:33:39;;;;;;;0.17;0.17;;;;;;;9.44;71.37;100434.19;5062116;28;20403;-80
2023/11/11 07:36:07;;;;;;;0.20;0.20;;;;;;;9.45;71.33;100451.81;5059752;28;20048;-81
2023/11/11 07:38:33;;;;;;;0.20;0.20;;;;;;;9.45;71.54;100454.44;5055312;28;20020;-80
2023/11/11 07:41:00;;;;;;;0.10;0.10;;;;;;;9.47;71.43;100465.84;5055599;28;20025;-79
2023/11/11 07:43:26;;;;;;;0.20;0.20;;;;;;;9.50;71.34;100473.72;5054621;28;20116;-78
2023/11/11 07:45:52;;;;;;;0.20;0.20;;;;;;;9.52;71.30;100467.50;5059375;28;20048;-78
2023/11/11 07:48:19;;;;;;;0.20;0.20;;;;;;;9.57;71.38;100475.34;5056010;28;20052;-79
2023/11/11 07:50:46;;;;;;;0.20;0.20;;;;;;;9.62;71.57;100476.13;5060437;28;20591;-79
2023/11/11 07:53:14;;;;;;;0.10;0.10;;;;;;;9.66;71.49;100469.84;5052265;28;20048;-80
2023/11/11 07:55:41;;;;;;;0.20;0.20;;;;;;;9.68;71.63;100469.78;5048686;28;20398;-80
2023/11/11 07:58:07;;;;;;;0.13;0.13;;;;;;;9.71;71.78;100470.59;5058104;28;20037;-81
2023/11/11 08:00:33;;;;;;;0.15;0.15;;;;;;;9.72;71.71;100476.78;5059957;28;20018;-81
2023/11/11 08:03:00;;;;;;;0.20;0.20;;;;;;;9.75;71.77;100466.13;5064409;28;20021;-81
2023/11/11 08:05:28;;;;;;;0.15;0.15;;;;;;;9.78;71.73;100459.88;5056074;28;20037;-81
2023/11/11 08:07:56;;;;;;;0.20;0.20;;;;;;;9.83;71.61;100471.22;5054208;28;20092;-81
2023/11/11 08:10:23;;;;;;;0.20;0.20;;;;;;;9.89;72.18;100468.44;5051077;28;20059;-80
2023/11/11 08:12:51;;;;;;;0.17;0.17;;;;;;;9.94;71.99;100463.03;5052558;28;20037;-80
2023/11/11 08:15:19;;;;;;;0.22;0.22;;;;;;;10.00;72.13;100469.06;5058998;28;20033;-80
2023/11/11 08:17:47;;;;;;;0.20;0.20;;;;;;;10.04;72.18;100470.75;5053613;28;20041;-78
2023/11/11 08:20:16;;;;;;;2.67;0.90;;;;;;;10.12;72.28;100469.66;5059342;28;20024;-77
2023/11/11 08:22:43;;;;;;;0.20;0.20;;;;;;;10.14;72.28;100467.84;5059796;28;20082;-77
2023/11/11 08:25:14;;;;;;;0.17;0.17;;;;;;;10.13;71.93;100480.25;5056962;28;20130;-79
2023/11/11 08:27:41;;;;;;;0.10;0.10;;;;;;;10.14;71.94;100479.34;5056640;28;20026;-77
2023/11/11 08:30:11;;;;;;;0.20;0.20;;;;;;;10.15;71.91;100493.44;5063350;28;20021;-78
2023/11/11 08:32:42;;;;;;;0.20;0.20;;;;;;;10.13;71.24;100479.34;5056204;28;20033;-78
2023/11/11 08:35:11;;;;;;;0.20;0.20;;;;;;;10.07;71.06;100480.38;5058935;28;20082;-78
2023/11/11 08:37:37;;;;;;;0.20;0.20;;;;;;;10.01;70.65;100480.53;5057136;28;20334;-78
2023/11/11 08:40:06;;;;;;;0.20;0.20;;;;;;;10.10;70.73;100476.78;5055377;28;20032;-80
2023/11/11 08:42:33;;;;;;;0.20;0.20;;;;;;;10.06;70.00;100475.13;5056263;28;20091;-80
2023/11/11 08:44:59;;;;;;;0.10;0.10;;;;;;;10.13;70.22;100497.88;5057612;28;20032;-80
2023/11/11 08:47:25;;;;;;;0.47;0.47;;;;;;;10.09;70.14;100505.03;5055129;28;20041;-78
2023/11/11 08:49:54;;;;;;;0.10;0.10;;;;;;;10.13;70.52;100511.13;5052112;28;20036;-78
2023/11/11 08:52:22;;;;;;;0.20;0.20;;;;;;;10.09;70.70;100512.97;5059474;28;20033;-78
2023/11/11 08:54:50;;;;;;;0.10;0.10;;;;;;;10.06;70.33;100509.53;5055224;28;20025;-78
2023/11/11 08:57:17;;;;;;;0.20;0.20;;;;;;;10.04;70.44;100504.25;5056669;28;20408;-78
2023/11/11 08:59:43;;;;;;;0.10;0.10;;;;;;;9.99;70.80;100507.03;5060387;28;20040;-78
2023/11/11 09:02:09;;;;;;;0.13;0.13;;;;;;;10.00;70.91;100514.06;5059399;28;20094;-78
2023/11/11 09:04:36;;;;;;;0.20;0.20;;;;;;;9.93;70.82;100503.66;5057857;28;20064;-78
2023/11/11 09:07:03;;;;;;;0.20;0.20;;;;;;;9.99;71.17;100512.34;5048028;28;20040;-78
2023/11/11 09:09:29;;;;;;;0.10;0.10;;;;;;;10.06;71.01;100506.91;5050720;28;20048;-78
2023/11/11 09:11:56;;;;;;;0.13;0.13;;;;;;;9.94;71.36;100523.91;5050869;28;20070;-78
2023/11/11 09:14:23;;;;;;;0.15;0.15;;;;;;;9.81;71.43;100516.25;5044183;28;20120;-77
2023/11/11 09:16:49;;;;;;;0.17;0.17;;;;;;;9.92;71.18;100510.72;5051459;28;20036;-78
2023/11/11 09:19:15;;;;;;;0.10;0.10;;;;;;;9.98;71.30;100515.88;5045811;28;20436;-78
2023/11/11 09:21:41;;;;;;;0.10;0.10;;;;;;;9.99;71.24;100519.38;5062641;28;20094;-78
2023/11/11 09:24:08;;;;;;;0.20;0.20;;;;;;;9.94;71.29;100508.91;5061963;28;20043;-79
2023/11/11 09:26:35;;;;;;;0.20;0.20;;;;;;;9.94;71.38;100511.53;5055147;28;20021;-77
2023/11/11 09:29:01;;;;;;;0.20;0.20;;;;;;;9.77;71.12;100517.22;5050048;28;20025;-77
2023/11/11 09:31:28;;;;;;;0.20;0.20;;;;;;;9.87;71.16;100518.75;5048735;28;20100;-78
2023/11/11 09:34:01;;;;;;;0.20;0.20;;;;;;;9.93;71.02;100524.81;5057214;28;20029;-84
2023/11/11 09:36:28;;;;;;;0.15;0.15;;;;;;;9.95;71.41;100520.38;5048435;28;20044;-79
2023/11/11 09:38:54;;;;;;;0.47;0.47;;;;;;;9.98;71.50;100521.16;5047940;28;20032;-79
2023/11/11 09:41:22;;;;;;;1.55;1.45;;;;;;;10.08;71.26;100526.25;5051559;28;20036;-79
2023/11/11 09:43:49;;;;;;;0.20;0.20;;;;;;;10.04;71.46;100536.03;5055632;28;20033;-78
2023/11/11 09:46:16;;;;;;;2.25;2.15;;;;;;;9.91;71.43;100532.78;5054909;28;20029;-77
2023/11/11 09:48:43;;;;;;;0.55;0.55;;;;;;;10.01;71.15;100541.41;5056154;28;20093;-78
2023/11/11 09:51:10;;;;;;;0.40;0.40;;;;;;;9.97;70.67;100539.72;5058749;28;20040;-77
2023/11/11 09:53:37;;;;;;;0.20;0.20;;;;;;;9.83;69.91;100547.97;5059231;28;20033;-79
2023/11/11 09:56:05;;;;;;;0.20;0.20;;;;;;;9.78;69.38;100560.41;5055306;28;20081;-78
2023/11/11 09:58:33;;;;;;;0.43;0.43;;;;;;;9.74;69.30;100558.75;5065755;28;20041;-77
2023/11/11 10:00:59;;;;;;;0.10;0.10;;;;;;;9.78;69.38;100534.84;5062701;28;20240;-78
2023/11/11 10:03:26;;;;;;;0.20;0.20;;;;;;;9.78;69.43;100534.84;5066803;28;20048;-78
2023/11/11 10:05:53;;;;;;;0.20;0.20;;;;;;;9.84;69.49;100540.00;5065520;28;20564;-78
2023/11/11 10:08:24;;;;;;;0.15;0.15;;;;;;;9.92;69.64;100534.53;5065091;28;20029;-78
2023/11/11 10:10:52;;;;;;;0.10;0.10;;;;;;;9.98;70.04;100542.34;5059656;28;20021;-77
2023/11/11 10:13:21;;;;;;;0.20;0.20;;;;;;;10.13;69.83;100537.59;5064292;28;20083;-79
2023/11/11 10:15:47;;;;;;;0.10;0.10;;;;;;;10.30;70.03;100543.34;5064340;28;20037;-78
2023/11/11 10:18:14;;;;;;;0.10;0.10;;;;;;;10.51;70.26;100542.00;5064298;28;20493;-78
2023/11/11 10:20:44;;;;;;;0.20;0.20;;;;;;;10.73;70.79;100545.91;5063365;28;20029;-79
2023/11/11 10:23:16;;;;;;;0.17;0.17;;;;;;;10.90;71.11;100543.69;5063757;28;20032;-79
2023/11/11 10:25:43;;;;;;;1.13;1.13;;;;;;;11.03;70.79;100543.34;5063317;28;20047;-78
2023/11/11 10:28:15;;;;;;;0.20;0.20;;;;;;;11.17;70.98;100550.03;5064138;28;20043;-78
2023/11/11 10:30:42;;;;;;;0.20;0.20;;;;;;;11.19;70.40;100560.63;5063872;28;20059;-78
2023/11/11 10:33:11;;;;;;;0.20;0.20;;;;;;;11.22;70.57;100555.22;5060778;28;20040;-78
2023/11/11 10:35:38;;;;;;;0.10;0.10;;;;;;;11.22;70.13;100555.22;5064118;28;20028;-78
2023/11/11 10:38:07;;;;;;;0.10;0.10;;;;;;;11.25;70.19;100559.56;5063661;28;20041;-78
2023/11/11 10:40:34;;;;;;;0.10;0.10;;;;;;;11.21;69.48;100548.16;5062449;28;20037;-78
2023/11/11 10:43:01;;;;;;;0.20;0.20;;;;;;;11.28;69.97;100547.09;5062693;28;20029;-78
2023/11/11 10:45:28;;;;;;;0.75;0.75;;;;;;;11.27;70.44;100547.13;5062269;28;20025;-78
2023/11/11 10:47:57;;;;;;;0.20;0.20;;;;;;;11.33;70.42;100546.97;5062873;28;20028;-77
2023/11/11 10:50:23;;;;;;;0.20;0.20;;;;;;;11.23;69.70;100549.00;5061126;28;20123;-78
2023/11/11 10:52:53;;;;;;;0.10;0.10;;;;;;;11.23;69.67;100551.66;5061767;28;20044;-78
2023/11/11 10:55:26;;;;;;;0.20;0.20;;;;;;;11.12;69.41;100548.44;5061459;28;20374;-79
2023/11/11 10:57:53;;;;;;;0.15;0.15;;;;;;;11.02;69.66;100553.09;5062487;28;20044;-78
2023/11/11 11:00:20;;;;;;;0.10;0.10;;;;;;;10.94;69.18;100558.63;5060551;28;20490;-78
2023/11/11 11:02:48;;;;;;;0.10;0.10;;;;;;;10.91;68.79;100555.16;5057467;28;20032;-79
2023/11/11 11:05:38;;;;;;;0.57;0.57;;;;;;;10.83;69.67;100563.31;5066370;28;20032;-79
2023/11/11 11:08:13;;;;;;;0.15;0.15;;;;;;;10.69;68.77;100563.66;5049878;28;20513;-78
2023/11/11 11:10:55;;;;;;;0.20;0.20;;;;;;;10.73;68.97;100567.09;5063084;28;20029;-79
2023/11/11 11:13:22;;;;;;;0.20;0.20;;;;;;;10.71;69.10;100571.59;5070399;28;20102;-80
2023/11/11 11:15:48;;;;;;;0.20;0.20;;;;;;;10.68;68.99;100568.09;5062160;28;20071;-79
2023/11/11 11:18:23;;;;;;;0.20;0.20;;;;;;;10.76;69.20;100577.63;5058293;28;20047;-79
2023/11/11 11:20:53;;;;;;;0.10;0.10;;;;;;;10.80;68.66;100574.88;5063746;28;20035;-79
2023/11/11 11:23:22;;;;;;;0.20;0.20;;;;;;;10.78;68.93;100568.75;5070033;28;20048;-79
2023/11/11 11:25:50;;;;;;;0.20;0.20;;;;;;;10.83;68.21;100571.28;5058403;28;20063;-79
2023/11/11 11:28:21;;;;;;;0.20;0.20;;;;;;;10.72;66.62;100566.25;5049457;28;20060;-79
2023/11/11 11:33:28;;;;;;;0.20;0.20;;;;;;;10.82;67.03;100564.22;5100945;27;20412;-80